sensor_id;sensor_type;location;lat;lon;timestamp;P1;durP1;ratioP1;P2;durP2;ratioP2
30384;SDS011;17181;51.002;4.096;2022-07-05T00:02:11;1.73;;;1.60;;
30384;SDS011;17181;51.002;4.096;2022-07-05T00:04:37;4.03;;;2.97;;
30384;SDS011;17181;51.002;4.096;2022-07-05T00:07:03;1.67;;;1.30;;
30384;SDS011;17181;51.002;4.096;2022-07-05T00:09:48;1.30;;;1.20;;
30384;SDS011;17181;51.002;4.096;2022-07-05T00:12:16;1.80;;;1.43;;
30384;SDS011;17181;51.002;4.096;2022-07-05T00:14:43;1.60;;;1.33;;
30384;SDS011;17181;51.002;4.096;2022-07-05T00:17:10;1.50;;;1.40;;
30384;SDS011;17181;51.002;4.096;2022-07-05T00:19:37;1.33;;;1.23;;
30384;SDS011;17181;51.002;4.096;2022-07-05T00:22:03;1.50;;;1.40;;
30384;SDS011;17181;51.002;4.096;2022-07-05T00:24:29;2.37;;;1.40;;
30384;SDS011;17181;51.002;4.096;2022-07-05T00:26:55;2.47;;;2.00;;
30384;SDS011;17181;51.002;4.096;2022-07-05T00:29:21;3.40;;;1.53;;
30384;SDS011;17181;51.002;4.096;2022-07-05T00:31:47;3.47;;;1.93;;
30384;SDS011;17181;51.002;4.096;2022-07-05T00:34:13;2.60;;;2.07;;
30384;SDS011;17181;51.002;4.096;2022-07-05T00:36:39;2.83;;;1.70;;
30384;SDS011;17181;51.002;4.096;2022-07-05T00:39:05;1.57;;;1.47;;
30384;SDS011;17181;51.002;4.096;2022-07-05T00:41:32;1.50;;;1.40;;
30384;SDS011;17181;51.002;4.096;2022-07-05T00:43:59;7.20;;;1.40;;
30384;SDS011;17181;51.002;4.096;2022-07-05T00:46:29;3.07;;;1.73;;
30384;SDS011;17181;51.002;4.096;2022-07-05T00:48:56;1.97;;;1.50;;
30384;SDS011;17181;51.002;4.096;2022-07-05T00:51:22;2.17;;;1.50;;
30384;SDS011;17181;51.002;4.096;2022-07-05T00:53:48;2.30;;;2.10;;
30384;SDS011;17181;51.002;4.096;2022-07-05T00:56:14;2.47;;;1.83;;
30384;SDS011;17181;51.002;4.096;2022-07-05T00:58:40;2.23;;;1.67;;
30384;SDS011;17181;51.002;4.096;2022-07-05T01:01:08;1.70;;;1.37;;
30384;SDS011;17181;51.002;4.096;2022-07-05T01:03:42;3.07;;;1.97;;
30384;SDS011;17181;51.002;4.096;2022-07-05T01:06:09;2.10;;;1.90;;
30384;SDS011;17181;51.002;4.096;2022-07-05T01:08:38;1.60;;;1.50;;
30384;SDS011;17181;51.002;4.096;2022-07-05T01:11:06;1.67;;;1.40;;
30384;SDS011;17181;51.002;4.096;2022-07-05T01:13:37;2.00;;;1.60;;
30384;SDS011;17181;51.002;4.096;2022-07-05T01:16:03;2.13;;;1.93;;
30384;SDS011;17181;51.002;4.096;2022-07-05T01:18:30;9.20;;;2.07;;
30384;SDS011;17181;51.002;4.096;2022-07-05T01:20:58;2.47;;;1.73;;
30384;SDS011;17181;51.002;4.096;2022-07-05T01:23:31;2.83;;;2.40;;
30384;SDS011;17181;51.002;4.096;2022-07-05T01:26:01;3.17;;;2.07;;
30384;SDS011;17181;51.002;4.096;2022-07-05T01:28:27;5.87;;;2.37;;
30384;SDS011;17181;51.002;4.096;2022-07-05T01:30:54;3.27;;;1.70;;
30384;SDS011;17181;51.002;4.096;2022-07-05T01:33:23;4.03;;;1.70;;
30384;SDS011;17181;51.002;4.096;2022-07-05T01:35:55;1.83;;;1.73;;
30384;SDS011;17181;51.002;4.096;2022-07-05T01:38:22;2.10;;;1.90;;
30384;SDS011;17181;51.002;4.096;2022-07-05T01:40:49;1.93;;;1.70;;
30384;SDS011;17181;51.002;4.096;2022-07-05T01:43:20;2.27;;;2.07;;
30384;SDS011;17181;51.002;4.096;2022-07-05T01:45:48;1.77;;;1.67;;
30384;SDS011;17181;51.002;4.096;2022-07-05T01:48:15;2.70;;;1.90;;
30384;SDS011;17181;51.002;4.096;2022-07-05T01:50:51;2.70;;;1.23;;
30384;SDS011;17181;51.002;4.096;2022-07-05T01:53:19;2.97;;;2.27;;
30384;SDS011;17181;51.002;4.096;2022-07-05T01:55:47;2.60;;;1.80;;
30384;SDS011;17181;51.002;4.096;2022-07-05T01:58:14;1.63;;;1.53;;
30384;SDS011;17181;51.002;4.096;2022-07-05T02:00:47;4.07;;;1.90;;
30384;SDS011;17181;51.002;4.096;2022-07-05T02:03:16;1.67;;;1.37;;
30384;SDS011;17181;51.002;4.096;2022-07-05T02:05:43;1.90;;;1.70;;
30384;SDS011;17181;51.002;4.096;2022-07-05T02:08:14;1.93;;;1.83;;
30384;SDS011;17181;51.002;4.096;2022-07-05T02:10:41;2.07;;;1.97;;
30384;SDS011;17181;51.002;4.096;2022-07-05T02:13:08;2.40;;;2.20;;
30384;SDS011;17181;51.002;4.096;2022-07-05T02:15:36;6.60;;;2.10;;
30384;SDS011;17181;51.002;4.096;2022-07-05T02:18:06;6.20;;;2.53;;
30384;SDS011;17181;51.002;4.096;2022-07-05T02:20:33;16.70;;;2.07;;
30384;SDS011;17181;51.002;4.096;2022-07-05T02:23:00;12.80;;;1.97;;
30384;SDS011;17181;51.002;4.096;2022-07-05T02:25:27;1.47;;;1.37;;
30384;SDS011;17181;51.002;4.096;2022-07-05T02:27:55;2.00;;;1.80;;
30384;SDS011;17181;51.002;4.096;2022-07-05T02:30:21;2.13;;;1.90;;
30384;SDS011;17181;51.002;4.096;2022-07-05T02:32:48;1.47;;;1.37;;
30384;SDS011;17181;51.002;4.096;2022-07-05T02:35:14;1.90;;;1.67;;
30384;SDS011;17181;51.002;4.096;2022-07-05T02:37:41;2.30;;;1.60;;
30384;SDS011;17181;51.002;4.096;2022-07-05T02:40:11;1.83;;;1.60;;
30384;SDS011;17181;51.002;4.096;2022-07-05T02:42:42;2.43;;;1.73;;
30384;SDS011;17181;51.002;4.096;2022-07-05T02:45:10;1.83;;;1.60;;
30384;SDS011;17181;51.002;4.096;2022-07-05T02:47:37;1.60;;;1.50;;
30384;SDS011;17181;51.002;4.096;2022-07-05T02:50:07;2.23;;;1.20;;
30384;SDS011;17181;51.002;4.096;2022-07-05T02:52:38;4.17;;;1.40;;
30384;SDS011;17181;51.002;4.096;2022-07-05T02:55:04;2.80;;;1.90;;
30384;SDS011;17181;51.002;4.096;2022-07-05T02:57:31;5.23;;;1.70;;
30384;SDS011;17181;51.002;4.096;2022-07-05T03:00:00;2.20;;;2.00;;
30384;SDS011;17181;51.002;4.096;2022-07-05T03:02:36;1.90;;;1.80;;
30384;SDS011;17181;51.002;4.096;2022-07-05T03:05:02;2.10;;;1.90;;
30384;SDS011;17181;51.002;4.096;2022-07-05T03:07:28;1.87;;;1.63;;
30384;SDS011;17181;51.002;4.096;2022-07-05T03:09:54;3.73;;;2.10;;
30384;SDS011;17181;51.002;4.096;2022-07-05T03:12:22;2.17;;;1.80;;
30384;SDS011;17181;51.002;4.096;2022-07-05T03:14:48;1.90;;;1.70;;
30384;SDS011;17181;51.002;4.096;2022-07-05T03:17:16;1.93;;;1.73;;
30384;SDS011;17181;51.002;4.096;2022-07-05T03:19:49;2.80;;;1.93;;
30384;SDS011;17181;51.002;4.096;2022-07-05T03:22:17;3.13;;;2.13;;
30384;SDS011;17181;51.002;4.096;2022-07-05T03:24:44;2.33;;;2.10;;
30384;SDS011;17181;51.002;4.096;2022-07-05T03:27:11;2.07;;;1.97;;
30384;SDS011;17181;51.002;4.096;2022-07-05T03:29:38;2.60;;;1.73;;
30384;SDS011;17181;51.002;4.096;2022-07-05T03:32:04;4.10;;;1.87;;
30384;SDS011;17181;51.002;4.096;2022-07-05T03:34:30;3.43;;;1.57;;
30384;SDS011;17181;51.002;4.096;2022-07-05T03:36:59;1.97;;;1.70;;
30384;SDS011;17181;51.002;4.096;2022-07-05T03:39:24;2.83;;;1.90;;
30384;SDS011;17181;51.002;4.096;2022-07-05T03:41:51;1.77;;;1.67;;
30384;SDS011;17181;51.002;4.096;2022-07-05T03:44:20;2.00;;;1.80;;
30384;SDS011;17181;51.002;4.096;2022-07-05T03:46:46;2.17;;;1.73;;
30384;SDS011;17181;51.002;4.096;2022-07-05T03:49:12;3.10;;;2.10;;
30384;SDS011;17181;51.002;4.096;2022-07-05T03:51:39;2.03;;;1.67;;
30384;SDS011;17181;51.002;4.096;2022-07-05T03:54:05;1.67;;;1.57;;
30384;SDS011;17181;51.002;4.096;2022-07-05T03:56:31;2.00;;;1.73;;
30384;SDS011;17181;51.002;4.096;2022-07-05T03:59:02;7.17;;;2.13;;
30384;SDS011;17181;51.002;4.096;2022-07-05T04:01:29;3.40;;;2.13;;
30384;SDS011;17181;51.002;4.096;2022-07-05T04:03:56;1.63;;;1.53;;
30384;SDS011;17181;51.002;4.096;2022-07-05T04:06:24;2.87;;;2.10;;
30384;SDS011;17181;51.002;4.096;2022-07-05T04:08:53;2.37;;;1.57;;
30384;SDS011;17181;51.002;4.096;2022-07-05T04:11:19;2.43;;;1.83;;
30384;SDS011;17181;51.002;4.096;2022-07-05T04:13:49;2.47;;;1.93;;
30384;SDS011;17181;51.002;4.096;2022-07-05T04:16:15;5.33;;;1.63;;
30384;SDS011;17181;51.002;4.096;2022-07-05T04:18:41;3.57;;;1.93;;
30384;SDS011;17181;51.002;4.096;2022-07-05T04:21:07;1.77;;;1.60;;
30384;SDS011;17181;51.002;4.096;2022-07-05T04:23:34;13.50;;;2.27;;
30384;SDS011;17181;51.002;4.096;2022-07-05T04:26:00;4.53;;;2.53;;
30384;SDS011;17181;51.002;4.096;2022-07-05T04:28:41;2.33;;;1.87;;
30384;SDS011;17181;51.002;4.096;2022-07-05T04:31:10;4.87;;;2.23;;
30384;SDS011;17181;51.002;4.096;2022-07-05T04:33:40;3.47;;;2.60;;
30384;SDS011;17181;51.002;4.096;2022-07-05T04:36:06;5.47;;;2.10;;
30384;SDS011;17181;51.002;4.096;2022-07-05T04:38:33;2.00;;;1.90;;
30384;SDS011;17181;51.002;4.096;2022-07-05T04:41:01;4.97;;;2.43;;
30384;SDS011;17181;51.002;4.096;2022-07-05T04:43:28;3.80;;;3.00;;
30384;SDS011;17181;51.002;4.096;2022-07-05T04:45:54;14.70;;;3.53;;
30384;SDS011;17181;51.002;4.096;2022-07-05T04:48:21;6.23;;;3.70;;
30384;SDS011;17181;51.002;4.096;2022-07-05T04:50:47;3.90;;;2.60;;
30384;SDS011;17181;51.002;4.096;2022-07-05T04:53:13;5.90;;;3.23;;
30384;SDS011;17181;51.002;4.096;2022-07-05T04:55:39;4.90;;;2.40;;
30384;SDS011;17181;51.002;4.096;2022-07-05T04:58:04;6.07;;;3.00;;
30384;SDS011;17181;51.002;4.096;2022-07-05T05:00:30;6.27;;;3.03;;
30384;SDS011;17181;51.002;4.096;2022-07-05T05:02:56;3.87;;;2.67;;
30384;SDS011;17181;51.002;4.096;2022-07-05T05:05:25;3.10;;;2.47;;
30384;SDS011;17181;51.002;4.096;2022-07-05T05:07:50;7.20;;;3.03;;
30384;SDS011;17181;51.002;4.096;2022-07-05T05:10:16;6.80;;;3.30;;
30384;SDS011;17181;51.002;4.096;2022-07-05T05:12:42;4.23;;;2.77;;
30384;SDS011;17181;51.002;4.096;2022-07-05T05:15:08;8.17;;;3.17;;
30384;SDS011;17181;51.002;4.096;2022-07-05T05:17:35;4.10;;;2.60;;
30384;SDS011;17181;51.002;4.096;2022-07-05T05:20:01;3.50;;;2.70;;
30384;SDS011;17181;51.002;4.096;2022-07-05T05:22:32;2.13;;;1.67;;
30384;SDS011;17181;51.002;4.096;2022-07-05T05:24:57;5.37;;;2.53;;
30384;SDS011;17181;51.002;4.096;2022-07-05T05:27:23;9.43;;;2.77;;
30384;SDS011;17181;51.002;4.096;2022-07-05T05:29:49;5.70;;;3.07;;
30384;SDS011;17181;51.002;4.096;2022-07-05T05:32:15;4.10;;;2.77;;
30384;SDS011;17181;51.002;4.096;2022-07-05T05:34:40;10.17;;;2.33;;
30384;SDS011;17181;51.002;4.096;2022-07-05T05:37:06;2.73;;;2.37;;
30384;SDS011;17181;51.002;4.096;2022-07-05T05:39:33;11.70;;;3.37;;
30384;SDS011;17181;51.002;4.096;2022-07-05T05:41:59;4.20;;;2.00;;
30384;SDS011;17181;51.002;4.096;2022-07-05T05:44:24;10.33;;;2.87;;
30384;SDS011;17181;51.002;4.096;2022-07-05T05:46:50;5.67;;;2.77;;
30384;SDS011;17181;51.002;4.096;2022-07-05T05:49:16;20.83;;;2.70;;
30384;SDS011;17181;51.002;4.096;2022-07-05T05:51:42;9.07;;;3.07;;
30384;SDS011;17181;51.002;4.096;2022-07-05T05:54:07;4.53;;;2.17;;
30384;SDS011;17181;51.002;4.096;2022-07-05T05:56:33;6.07;;;2.10;;
30384;SDS011;17181;51.002;4.096;2022-07-05T05:58:59;6.40;;;2.63;;
30384;SDS011;17181;51.002;4.096;2022-07-05T06:01:25;3.50;;;1.90;;
30384;SDS011;17181;51.002;4.096;2022-07-05T06:03:51;4.83;;;2.10;;
30384;SDS011;17181;51.002;4.096;2022-07-05T06:06:16;3.43;;;2.13;;
30384;SDS011;17181;51.002;4.096;2022-07-05T06:08:42;2.53;;;2.33;;
30384;SDS011;17181;51.002;4.096;2022-07-05T06:11:08;14.23;;;2.83;;
30384;SDS011;17181;51.002;4.096;2022-07-05T06:13:34;14.37;;;2.50;;
30384;SDS011;17181;51.002;4.096;2022-07-05T06:16:00;11.40;;;2.67;;
30384;SDS011;17181;51.002;4.096;2022-07-05T06:18:26;4.23;;;2.40;;
30384;SDS011;17181;51.002;4.096;2022-07-05T06:20:52;4.30;;;2.80;;
30384;SDS011;17181;51.002;4.096;2022-07-05T06:23:18;10.37;;;3.40;;
30384;SDS011;17181;51.002;4.096;2022-07-05T06:25:43;4.10;;;3.10;;
30384;SDS011;17181;51.002;4.096;2022-07-05T06:28:09;10.00;;;2.60;;
30384;SDS011;17181;51.002;4.096;2022-07-05T06:30:36;11.37;;;3.20;;
30384;SDS011;17181;51.002;4.096;2022-07-05T06:33:03;5.17;;;3.10;;
30384;SDS011;17181;51.002;4.096;2022-07-05T06:35:29;8.67;;;2.70;;
30384;SDS011;17181;51.002;4.096;2022-07-05T06:38:00;10.17;;;2.30;;
30384;SDS011;17181;51.002;4.096;2022-07-05T06:40:29;8.27;;;2.40;;
30384;SDS011;17181;51.002;4.096;2022-07-05T06:42:57;12.60;;;3.27;;
30384;SDS011;17181;51.002;4.096;2022-07-05T06:45:31;11.53;;;2.87;;
30384;SDS011;17181;51.002;4.096;2022-07-05T06:48:00;11.37;;;2.43;;
30384;SDS011;17181;51.002;4.096;2022-07-05T06:50:30;8.73;;;2.83;;
30384;SDS011;17181;51.002;4.096;2022-07-05T06:52:58;10.20;;;3.27;;
30384;SDS011;17181;51.002;4.096;2022-07-05T06:55:24;5.70;;;2.20;;
30384;SDS011;17181;51.002;4.096;2022-07-05T06:58:07;4.13;;;1.97;;
30384;SDS011;17181;51.002;4.096;2022-07-05T07:00:33;12.80;;;3.03;;
30384;SDS011;17181;51.002;4.096;2022-07-05T07:03:00;4.07;;;2.07;;
30384;SDS011;17181;51.002;4.096;2022-07-05T07:05:26;17.20;;;2.87;;
30384;SDS011;17181;51.002;4.096;2022-07-05T07:07:52;15.93;;;2.70;;
30384;SDS011;17181;51.002;4.096;2022-07-05T07:10:37;9.73;;;3.20;;
30384;SDS011;17181;51.002;4.096;2022-07-05T07:13:03;7.17;;;2.70;;
30384;SDS011;17181;51.002;4.096;2022-07-05T07:15:29;7.20;;;2.73;;
30384;SDS011;17181;51.002;4.096;2022-07-05T07:17:56;6.93;;;2.77;;
30384;SDS011;17181;51.002;4.096;2022-07-05T07:20:22;7.40;;;2.30;;
30384;SDS011;17181;51.002;4.096;2022-07-05T07:22:48;2.80;;;2.47;;
30384;SDS011;17181;51.002;4.096;2022-07-05T07:25:14;9.50;;;3.30;;
30384;SDS011;17181;51.002;4.096;2022-07-05T07:27:44;8.30;;;2.77;;
30384;SDS011;17181;51.002;4.096;2022-07-05T07:30:11;7.03;;;2.53;;
30384;SDS011;17181;51.002;4.096;2022-07-05T07:32:38;3.07;;;2.33;;
30384;SDS011;17181;51.002;4.096;2022-07-05T07:35:04;11.00;;;2.30;;
30384;SDS011;17181;51.002;4.096;2022-07-05T07:37:31;1.93;;;1.70;;
30384;SDS011;17181;51.002;4.096;2022-07-05T07:39:57;3.90;;;1.97;;
30384;SDS011;17181;51.002;4.096;2022-07-05T07:42:23;5.07;;;3.17;;
30384;SDS011;17181;51.002;4.096;2022-07-05T07:44:50;7.63;;;2.17;;
30384;SDS011;17181;51.002;4.096;2022-07-05T07:47:15;8.30;;;2.57;;
30384;SDS011;17181;51.002;4.096;2022-07-05T07:49:41;4.90;;;1.80;;
30384;SDS011;17181;51.002;4.096;2022-07-05T07:52:07;8.27;;;2.13;;
30384;SDS011;17181;51.002;4.096;2022-07-05T07:54:33;2.53;;;1.97;;
30384;SDS011;17181;51.002;4.096;2022-07-05T07:56:58;2.07;;;1.80;;
30384;SDS011;17181;51.002;4.096;2022-07-05T07:59:26;4.37;;;1.17;;
30384;SDS011;17181;51.002;4.096;2022-07-05T08:01:52;6.03;;;1.83;;
30384;SDS011;17181;51.002;4.096;2022-07-05T08:04:18;2.80;;;1.40;;
30384;SDS011;17181;51.002;4.096;2022-07-05T08:06:44;0.83;;;0.50;;
30384;SDS011;17181;51.002;4.096;2022-07-05T08:09:10;12.47;;;1.90;;
30384;SDS011;17181;51.002;4.096;2022-07-05T08:11:36;12.13;;;1.87;;
30384;SDS011;17181;51.002;4.096;2022-07-05T08:14:02;6.13;;;1.30;;
30384;SDS011;17181;51.002;4.096;2022-07-05T08:16:27;10.83;;;1.60;;
30384;SDS011;17181;51.002;4.096;2022-07-05T08:18:53;7.33;;;1.77;;
30384;SDS011;17181;51.002;4.096;2022-07-05T08:21:38;9.27;;;1.20;;
30384;SDS011;17181;51.002;4.096;2022-07-05T08:24:05;8.70;;;1.53;;
30384;SDS011;17181;51.002;4.096;2022-07-05T08:26:36;11.87;;;1.83;;
30384;SDS011;17181;51.002;4.096;2022-07-05T08:29:04;9.17;;;3.80;;
30384;SDS011;17181;51.002;4.096;2022-07-05T08:31:32;1.83;;;1.20;;
30384;SDS011;17181;51.002;4.096;2022-07-05T08:34:04;3.13;;;1.10;;
30384;SDS011;17181;51.002;4.096;2022-07-05T08:36:30;0.30;;;0.30;;
30384;SDS011;17181;51.002;4.096;2022-07-05T08:38:56;1.57;;;1.33;;
30384;SDS011;17181;51.002;4.096;2022-07-05T08:41:25;6.23;;;1.80;;
30384;SDS011;17181;51.002;4.096;2022-07-05T08:43:51;17.13;;;2.10;;
30384;SDS011;17181;51.002;4.096;2022-07-05T08:46:17;4.27;;;0.97;;
30384;SDS011;17181;51.002;4.096;2022-07-05T08:48:48;0.80;;;0.80;;
30384;SDS011;17181;51.002;4.096;2022-07-05T08:51:16;1.93;;;1.37;;
30384;SDS011;17181;51.002;4.096;2022-07-05T08:53:46;2.37;;;0.47;;
30384;SDS011;17181;51.002;4.096;2022-07-05T08:56:12;1.23;;;1.13;;
30384;SDS011;17181;51.002;4.096;2022-07-05T08:58:39;3.53;;;1.80;;
30384;SDS011;17181;51.002;4.096;2022-07-05T09:01:06;4.63;;;1.60;;
30384;SDS011;17181;51.002;4.096;2022-07-05T09:03:33;3.00;;;1.33;;
30384;SDS011;17181;51.002;4.096;2022-07-05T09:06:24;2.47;;;0.73;;
30384;SDS011;17181;51.002;4.096;2022-07-05T09:08:51;1.50;;;1.40;;
30384;SDS011;17181;51.002;4.096;2022-07-05T09:11:22;1.50;;;1.17;;
30384;SDS011;17181;51.002;4.096;2022-07-05T09:13:53;3.53;;;1.23;;
30384;SDS011;17181;51.002;4.096;2022-07-05T09:16:19;1.00;;;0.90;;
30384;SDS011;17181;51.002;4.096;2022-07-05T09:18:54;3.40;;;1.23;;
30384;SDS011;17181;51.002;4.096;2022-07-05T09:21:21;2.17;;;1.03;;
30384;SDS011;17181;51.002;4.096;2022-07-05T09:23:56;6.77;;;2.17;;
30384;SDS011;17181;51.002;4.096;2022-07-05T09:29:03;6.43;;;1.17;;
30384;SDS011;17181;51.002;4.096;2022-07-05T09:31:37;3.17;;;0.87;;
30384;SDS011;17181;51.002;4.096;2022-07-05T09:34:20;1.50;;;0.37;;
30384;SDS011;17181;51.002;4.096;2022-07-05T09:37:00;2.27;;;1.10;;
30384;SDS011;17181;51.002;4.096;2022-07-05T09:42:11;1.40;;;1.30;;
30384;SDS011;17181;51.002;4.096;2022-07-05T09:47:21;6.77;;;1.10;;
30384;SDS011;17181;51.002;4.096;2022-07-05T09:49:52;2.70;;;0.97;;
30384;SDS011;17181;51.002;4.096;2022-07-05T09:55:16;5.53;;;0.93;;
30384;SDS011;17181;51.002;4.096;2022-07-05T09:57:43;3.43;;;1.70;;
30384;SDS011;17181;51.002;4.096;2022-07-05T10:02:43;1.57;;;1.10;;
30384;SDS011;17181;51.002;4.096;2022-07-05T10:05:26;2.90;;;1.57;;
30384;SDS011;17181;51.002;4.096;2022-07-05T10:07:54;2.87;;;1.10;;
30384;SDS011;17181;51.002;4.096;2022-07-05T10:10:30;7.63;;;2.03;;
30384;SDS011;17181;51.002;4.096;2022-07-05T10:13:01;6.77;;;1.37;;
30384;SDS011;17181;51.002;4.096;2022-07-05T10:15:29;1.20;;;0.90;;
30384;SDS011;17181;51.002;4.096;2022-07-05T10:17:59;12.93;;;0.80;;
30384;SDS011;17181;51.002;4.096;2022-07-05T10:23:02;6.30;;;0.93;;
30384;SDS011;17181;51.002;4.096;2022-07-05T10:25:29;5.90;;;1.50;;
30384;SDS011;17181;51.002;4.096;2022-07-05T10:27:56;2.77;;;1.37;;
30384;SDS011;17181;51.002;4.096;2022-07-05T10:30:23;3.20;;;1.20;;
30384;SDS011;17181;51.002;4.096;2022-07-05T10:32:50;2.23;;;1.00;;
30384;SDS011;17181;51.002;4.096;2022-07-05T10:35:19;1.77;;;1.67;;
30384;SDS011;17181;51.002;4.096;2022-07-05T10:37:47;1.80;;;0.80;;
30384;SDS011;17181;51.002;4.096;2022-07-05T10:40:14;3.47;;;1.93;;
30384;SDS011;17181;51.002;4.096;2022-07-05T10:42:42;3.33;;;1.93;;
30384;SDS011;17181;51.002;4.096;2022-07-05T10:45:32;3.07;;;2.17;;
30384;SDS011;17181;51.002;4.096;2022-07-05T10:50:46;4.33;;;1.80;;
30384;SDS011;17181;51.002;4.096;2022-07-05T11:06:27;6.97;;;1.77;;
30384;SDS011;17181;51.002;4.096;2022-07-05T11:11:28;5.57;;;2.37;;
30384;SDS011;17181;51.002;4.096;2022-07-05T11:14:02;9.80;;;1.40;;
30384;SDS011;17181;51.002;4.096;2022-07-05T11:19:08;4.50;;;1.23;;
30384;SDS011;17181;51.002;4.096;2022-07-05T11:21:35;1.80;;;1.70;;
30384;SDS011;17181;51.002;4.096;2022-07-05T11:26:47;4.17;;;1.60;;
30384;SDS011;17181;51.002;4.096;2022-07-05T11:32:07;3.90;;;1.50;;
30384;SDS011;17181;51.002;4.096;2022-07-05T11:34:34;1.70;;;1.33;;
30384;SDS011;17181;51.002;4.096;2022-07-05T11:39:40;2.23;;;1.20;;
30384;SDS011;17181;51.002;4.096;2022-07-05T11:42:06;1.33;;;1.23;;
30384;SDS011;17181;51.002;4.096;2022-07-05T11:44:34;1.17;;;1.07;;
30384;SDS011;17181;51.002;4.096;2022-07-05T11:47:01;2.20;;;0.70;;
30384;SDS011;17181;51.002;4.096;2022-07-05T11:49:28;0.63;;;0.63;;
30384;SDS011;17181;51.002;4.096;2022-07-05T11:52:03;0.97;;;0.87;;
30384;SDS011;17181;51.002;4.096;2022-07-05T11:54:30;3.40;;;0.60;;
30384;SDS011;17181;51.002;4.096;2022-07-05T11:56:57;5.20;;;1.17;;
30384;SDS011;17181;51.002;4.096;2022-07-05T11:59:25;1.00;;;0.90;;
30384;SDS011;17181;51.002;4.096;2022-07-05T12:01:51;0.90;;;0.50;;
30384;SDS011;17181;51.002;4.096;2022-07-05T12:04:25;3.47;;;1.20;;
30384;SDS011;17181;51.002;4.096;2022-07-05T12:06:52;6.73;;;1.97;;
30384;SDS011;17181;51.002;4.096;2022-07-05T12:09:36;3.30;;;0.70;;
30384;SDS011;17181;51.002;4.096;2022-07-05T12:12:24;0.90;;;0.87;;
30384;SDS011;17181;51.002;4.096;2022-07-05T12:15:15;2.30;;;1.27;;
30384;SDS011;17181;51.002;4.096;2022-07-05T12:17:46;2.30;;;0.90;;
30384;SDS011;17181;51.002;4.096;2022-07-05T12:20:14;1.93;;;1.23;;
30384;SDS011;17181;51.002;4.096;2022-07-05T12:22:51;2.07;;;1.33;;
30384;SDS011;17181;51.002;4.096;2022-07-05T12:25:18;0.50;;;0.50;;
30384;SDS011;17181;51.002;4.096;2022-07-05T12:27:46;0.77;;;0.70;;
30384;SDS011;17181;51.002;4.096;2022-07-05T12:30:15;7.13;;;1.53;;
30384;SDS011;17181;51.002;4.096;2022-07-05T12:32:54;0.60;;;0.60;;
30384;SDS011;17181;51.002;4.096;2022-07-05T12:35:29;4.23;;;0.80;;
30384;SDS011;17181;51.002;4.096;2022-07-05T12:37:55;0.73;;;0.70;;
30384;SDS011;17181;51.002;4.096;2022-07-05T12:40:22;1.70;;;1.00;;
30384;SDS011;17181;51.002;4.096;2022-07-05T12:42:59;4.33;;;1.10;;
30384;SDS011;17181;51.002;4.096;2022-07-05T12:45:30;2.33;;;1.30;;
30384;SDS011;17181;51.002;4.096;2022-07-05T12:47:57;1.40;;;1.17;;
30384;SDS011;17181;51.002;4.096;2022-07-05T12:50:28;0.80;;;0.80;;
30384;SDS011;17181;51.002;4.096;2022-07-05T12:53:06;2.40;;;0.80;;
30384;SDS011;17181;51.002;4.096;2022-07-05T12:56:01;2.07;;;1.40;;
30384;SDS011;17181;51.002;4.096;2022-07-05T12:58:52;3.67;;;0.90;;
30384;SDS011;17181;51.002;4.096;2022-07-05T13:04:03;2.00;;;1.33;;
30384;SDS011;17181;51.002;4.096;2022-07-05T13:09:10;0.50;;;0.50;;
30384;SDS011;17181;51.002;4.096;2022-07-05T13:11:37;1.23;;;0.80;;
30384;SDS011;17181;51.002;4.096;2022-07-05T13:14:03;4.83;;;0.53;;
30384;SDS011;17181;51.002;4.096;2022-07-05T13:16:29;1.43;;;0.73;;
30384;SDS011;17181;51.002;4.096;2022-07-05T13:19:05;0.80;;;0.80;;
30384;SDS011;17181;51.002;4.096;2022-07-05T13:21:35;8.60;;;2.33;;
30384;SDS011;17181;51.002;4.096;2022-07-05T13:24:01;3.63;;;2.15;;
30384;SDS011;17181;51.002;4.096;2022-07-05T13:26:29;2.30;;;1.80;;
30384;SDS011;17181;51.002;4.096;2022-07-05T13:28:54;6.75;;;1.20;;
30384;SDS011;17181;51.002;4.096;2022-07-05T13:31:20;0.88;;;0.88;;
30384;SDS011;17181;51.002;4.096;2022-07-05T13:33:46;1.27;;;1.20;;
30384;SDS011;17181;51.002;4.096;2022-07-05T13:36:12;1.48;;;0.88;;
30384;SDS011;17181;51.002;4.096;2022-07-05T13:38:37;1.77;;;0.98;;
30384;SDS011;17181;51.002;4.096;2022-07-05T13:41:03;8.50;;;1.70;;
30384;SDS011;17181;51.002;4.096;2022-07-05T13:43:29;3.05;;;1.17;;
30384;SDS011;17181;51.002;4.096;2022-07-05T13:45:55;2.10;;;0.80;;
30384;SDS011;17181;51.002;4.096;2022-07-05T13:48:20;0.32;;;0.32;;
30384;SDS011;17181;51.002;4.096;2022-07-05T13:50:47;1.00;;;1.00;;
30384;SDS011;17181;51.002;4.096;2022-07-05T13:53:12;0.43;;;0.43;;
30384;SDS011;17181;51.002;4.096;2022-07-05T13:55:38;2.45;;;0.90;;
30384;SDS011;17181;51.002;4.096;2022-07-05T13:58:04;1.48;;;0.80;;
30384;SDS011;17181;51.002;4.096;2022-07-05T14:00:30;2.60;;;0.80;;
30384;SDS011;17181;51.002;4.096;2022-07-05T14:02:55;4.93;;;1.27;;
30384;SDS011;17181;51.002;4.096;2022-07-05T14:05:21;4.22;;;0.90;;
30384;SDS011;17181;51.002;4.096;2022-07-05T14:07:47;6.60;;;0.85;;
30384;SDS011;17181;51.002;4.096;2022-07-05T14:10:13;0.55;;;0.55;;
30384;SDS011;17181;51.002;4.096;2022-07-05T14:12:40;4.82;;;0.77;;
30384;SDS011;17181;51.002;4.096;2022-07-05T14:15:06;1.00;;;0.90;;
30384;SDS011;17181;51.002;4.096;2022-07-05T14:17:32;2.25;;;0.90;;
30384;SDS011;17181;51.002;4.096;2022-07-05T14:19:58;0.65;;;0.57;;
30384;SDS011;17181;51.002;4.096;2022-07-05T14:22:24;0.52;;;0.52;;
30384;SDS011;17181;51.002;4.096;2022-07-05T14:24:50;1.75;;;0.80;;
30384;SDS011;17181;51.002;4.096;2022-07-05T14:27:16;0.52;;;0.52;;
30384;SDS011;17181;51.002;4.096;2022-07-05T14:29:41;2.05;;;0.85;;
30384;SDS011;17181;51.002;4.096;2022-07-05T14:32:07;0.52;;;0.52;;
30384;SDS011;17181;51.002;4.096;2022-07-05T14:34:33;1.95;;;1.75;;
30384;SDS011;17181;51.002;4.096;2022-07-05T14:36:59;0.63;;;0.63;;
30384;SDS011;17181;51.002;4.096;2022-07-05T14:39:25;1.10;;;0.65;;
30384;SDS011;17181;51.002;4.096;2022-07-05T14:41:51;0.80;;;0.57;;
30384;SDS011;17181;51.002;4.096;2022-07-05T14:44:17;1.05;;;0.55;;
30384;SDS011;17181;51.002;4.096;2022-07-05T14:46:43;2.45;;;0.85;;
30384;SDS011;17181;51.002;4.096;2022-07-05T14:49:09;0.52;;;0.52;;
30384;SDS011;17181;51.002;4.096;2022-07-05T14:51:35;1.85;;;0.65;;
30384;SDS011;17181;51.002;4.096;2022-07-05T14:54:00;1.08;;;0.88;;
30384;SDS011;17181;51.002;4.096;2022-07-05T14:56:28;2.30;;;0.70;;
30384;SDS011;17181;51.002;4.096;2022-07-05T14:58:53;3.33;;;0.32;;
30384;SDS011;17181;51.002;4.096;2022-07-05T15:01:19;0.68;;;0.65;;
30384;SDS011;17181;51.002;4.096;2022-07-05T15:03:45;1.40;;;0.98;;
30384;SDS011;17181;51.002;4.096;2022-07-05T15:06:11;0.20;;;0.20;;
30384;SDS011;17181;51.002;4.096;2022-07-05T15:08:37;1.67;;;0.75;;
30384;SDS011;17181;51.002;4.096;2022-07-05T15:11:03;0.43;;;0.10;;
30384;SDS011;17181;51.002;4.096;2022-07-05T15:13:30;1.77;;;1.50;;
30384;SDS011;17181;51.002;4.096;2022-07-05T15:15:56;0.40;;;0.40;;
30384;SDS011;17181;51.002;4.096;2022-07-05T15:18:22;1.05;;;0.90;;
30384;SDS011;17181;51.002;4.096;2022-07-05T15:20:49;1.17;;;0.70;;
30384;SDS011;17181;51.002;4.096;2022-07-05T15:23:19;2.00;;;1.00;;
30384;SDS011;17181;51.002;4.096;2022-07-05T15:25:45;0.55;;;0.30;;
30384;SDS011;17181;51.002;4.096;2022-07-05T15:28:11;17.38;;;1.58;;
30384;SDS011;17181;51.002;4.096;2022-07-05T15:30:39;2.63;;;0.73;;
30384;SDS011;17181;51.002;4.096;2022-07-05T15:33:06;3.72;;;0.90;;
30384;SDS011;17181;51.002;4.096;2022-07-05T15:35:33;0.80;;;0.80;;
30384;SDS011;17181;51.002;4.096;2022-07-05T15:37:59;1.80;;;1.00;;
30384;SDS011;17181;51.002;4.096;2022-07-05T15:40:24;1.52;;;0.82;;
30384;SDS011;17181;51.002;4.096;2022-07-05T15:42:50;3.80;;;0.95;;